FABL/BFN METAR and TAF weather

Enter ICAO airport designator
Station Type Date Time Source
FABL METAR 2019/04/25 22:00 UTC NOAA

FABL 252200Z AUTO VRB02KT 9999 ///////// 09/07 Q1021


Station Type Date Time Source
FABL Decoded METAR 2019/04/25 22:00 UTC NOAA

Bloemfontein, Bloemfontein Airport, South Africa (FABL) 29-06S 026-18E 1400M
Apr 25, 2019 - 06:00 PM EDT / 2019.04.25 2200 UTC
Wind: Variable at 2 MPH (2 KT):0
Visibility: greater than 7 mile(s):0
Temperature: 48 F (9 C)
Dew Point: 44 F (7 C)
Relative Humidity: 87%
Pressure (altimeter): 30.15 in. Hg (1021 hPa)
ob: FABL 252200Z AUTO VRB02KT 9999 ///////// 09/07 Q1021
cycle: 22

Station Type Date Time Source
FABL TAF 2019/04/25 18:01 UTC NOAA

TAF FABL 251600Z 2518/2618 24005KT CAVOK TX23/2612Z TN07/2604Z PROB30 2601/2605 3000 BR BKN010

Example: see airport list